Tipperary, Ireland
Current Conditions -  °F | °C
As of 11:30 PM on Thursday 18 Dec 2014 (Local Time) from EINN Reporting Station
Broken Clouds Broken Clouds  
Wind Chill: 41°   Ceiling: 2800
Heat Index: 46°   Visibility: 6mi
Dew Point: 41°   Wind: 10mph
Humidity: 81%   Direction: 280°W
Pressure: 29.8"   Gusts: NA
Location:  52.49°N, 8.17°W
Report Text: EINN 182330Z 28009KT 9999 FEW015 BKN028 08/05 Q1009 NOSIG
Loading
Personal Weather Stations






























Interactive Weather Map New forecast layout! Learn more

10-Day Weather Forecast

Advertisements
Track Severe Weather on mobile